sensor_id;sensor_type;location;lat;lon;timestamp;pressure;altitude;pressure_sealevel;temperature;humidity
10958;BME280;5531;42.570;23.676;2022-09-29T00:01:29;91273.56;;;15.84;74.82
10958;BME280;5531;42.570;23.676;2022-09-29T00:03:59;91272.25;;;15.87;74.87
10958;BME280;5531;42.570;23.676;2022-09-29T00:06:30;91273.75;;;15.78;75.78
10958;BME280;5531;42.570;23.676;2022-09-29T00:08:59;91270.44;;;15.70;75.44
10958;BME280;5531;42.570;23.676;2022-09-29T00:11:29;91264.06;;;15.66;75.83
10958;BME280;5531;42.570;23.676;2022-09-29T00:13:58;91270.38;;;15.65;75.82
10958;BME280;5531;42.570;23.676;2022-09-29T00:16:27;91269.34;;;15.66;75.03
10958;BME280;5531;42.570;23.676;2022-09-29T00:18:56;91266.22;;;15.69;74.60
10958;BME280;5531;42.570;23.676;2022-09-29T00:21:26;91257.19;;;15.65;75.18
10958;BME280;5531;42.570;23.676;2022-09-29T00:24:00;91266.13;;;15.64;74.85
10958;BME280;5531;42.570;23.676;2022-09-29T00:26:29;91256.94;;;15.67;74.69
10958;BME280;5531;42.570;23.676;2022-09-29T00:28:58;91268.78;;;15.64;74.34
10958;BME280;5531;42.570;23.676;2022-09-29T00:31:29;91260.53;;;15.61;74.97
10958;BME280;5531;42.570;23.676;2022-09-29T00:33:59;91259.88;;;15.48;76.15
10958;BME280;5531;42.570;23.676;2022-09-29T00:36:28;91256.53;;;15.36;76.80
10958;BME280;5531;42.570;23.676;2022-09-29T00:39:00;91254.38;;;15.33;77.36
10958;BME280;5531;42.570;23.676;2022-09-29T00:41:32;91259.44;;;15.34;77.18
10958;BME280;5531;42.570;23.676;2022-09-29T00:44:03;91261.47;;;15.27;77.54
10958;BME280;5531;42.570;23.676;2022-09-29T00:46:40;91260.09;;;15.25;78.09
10958;BME280;5531;42.570;23.676;2022-09-29T00:49:15;91266.63;;;15.22;78.01
10958;BME280;5531;42.570;23.676;2022-09-29T00:51:50;91256.75;;;15.12;78.20
10958;BME280;5531;42.570;23.676;2022-09-29T00:54:26;91267.56;;;15.11;78.66
10958;BME280;5531;42.570;23.676;2022-09-29T00:56:59;91258.69;;;15.00;79.23
10958;BME280;5531;42.570;23.676;2022-09-29T00:59:32;91251.56;;;15.00;79.63
10958;BME280;5531;42.570;23.676;2022-09-29T01:02:03;91269.25;;;15.00;79.09
10958;BME280;5531;42.570;23.676;2022-09-29T01:04:34;91263.97;;;15.00;78.94
10958;BME280;5531;42.570;23.676;2022-09-29T01:07:03;91269.66;;;14.92;79.14
10958;BME280;5531;42.570;23.676;2022-09-29T01:09:37;91265.75;;;14.77;80.08
10958;BME280;5531;42.570;23.676;2022-09-29T01:12:07;91266.69;;;14.71;79.78
10958;BME280;5531;42.570;23.676;2022-09-29T01:14:37;91274.88;;;14.41;81.46
10958;BME280;5531;42.570;23.676;2022-09-29T01:17:06;91267.53;;;14.43;81.39
10958;BME280;5531;42.570;23.676;2022-09-29T01:19:43;91262.97;;;14.38;81.48
10958;BME280;5531;42.570;23.676;2022-09-29T01:22:27;91265.22;;;14.29;81.96
10958;BME280;5531;42.570;23.676;2022-09-29T01:25:17;91262.66;;;14.35;82.48
10958;BME280;5531;42.570;23.676;2022-09-29T01:28:19;91277.38;;;14.47;81.41
10958;BME280;5531;42.570;23.676;2022-09-29T01:31:08;91274.53;;;14.37;82.20
10958;BME280;5531;42.570;23.676;2022-09-29T01:33:43;91282.91;;;14.17;83.35
10958;BME280;5531;42.570;23.676;2022-09-29T01:36:22;91276.47;;;13.96;84.04
10958;BME280;5531;42.570;23.676;2022-09-29T01:39:01;91273.19;;;13.89;84.25
10958;BME280;5531;42.570;23.676;2022-09-29T01:41:39;91273.00;;;13.67;85.71
10958;BME280;5531;42.570;23.676;2022-09-29T01:44:15;91262.97;;;13.52;86.20
10958;BME280;5531;42.570;23.676;2022-09-29T01:46:51;91265.47;;;13.59;86.27
10958;BME280;5531;42.570;23.676;2022-09-29T01:49:22;91270.41;;;13.55;86.31
10958;BME280;5531;42.570;23.676;2022-09-29T01:51:57;91283.94;;;13.47;87.20
10958;BME280;5531;42.570;23.676;2022-09-29T01:54:31;91282.19;;;13.52;85.94
10958;BME280;5531;42.570;23.676;2022-09-29T01:57:07;91279.50;;;13.35;86.97
10958;BME280;5531;42.570;23.676;2022-09-29T01:59:42;91283.72;;;13.36;87.26
10958;BME280;5531;42.570;23.676;2022-09-29T02:02:18;91290.34;;;13.39;86.79
10958;BME280;5531;42.570;23.676;2022-09-29T02:04:52;91289.56;;;13.38;86.33
10958;BME280;5531;42.570;23.676;2022-09-29T02:07:27;91289.44;;;13.33;87.29
10958;BME280;5531;42.570;23.676;2022-09-29T02:10:02;91294.72;;;13.33;87.02
10958;BME280;5531;42.570;23.676;2022-09-29T02:12:34;91295.13;;;13.30;86.46
10958;BME280;5531;42.570;23.676;2022-09-29T02:15:07;91289.78;;;13.37;86.62
10958;BME280;5531;42.570;23.676;2022-09-29T02:17:43;91286.13;;;13.38;87.13
10958;BME280;5531;42.570;23.676;2022-09-29T02:20:14;91302.16;;;13.36;87.05
10958;BME280;5531;42.570;23.676;2022-09-29T02:22:43;91296.28;;;13.34;86.84
10958;BME280;5531;42.570;23.676;2022-09-29T02:25:16;91302.44;;;13.16;87.23
10958;BME280;5531;42.570;23.676;2022-09-29T02:27:47;91297.31;;;13.10;87.31
10958;BME280;5531;42.570;23.676;2022-09-29T02:30:17;91297.31;;;13.10;87.48
10958;BME280;5531;42.570;23.676;2022-09-29T02:32:49;91292.97;;;13.15;87.20
10958;BME280;5531;42.570;23.676;2022-09-29T02:35:18;91292.38;;;13.13;87.28
10958;BME280;5531;42.570;23.676;2022-09-29T02:37:56;91294.47;;;13.11;87.21
10958;BME280;5531;42.570;23.676;2022-09-29T02:40:37;91295.97;;;13.07;88.75
10958;BME280;5531;42.570;23.676;2022-09-29T02:43:29;91300.28;;;13.13;87.74
10958;BME280;5531;42.570;23.676;2022-09-29T02:46:10;91297.22;;;13.28;88.15
10958;BME280;5531;42.570;23.676;2022-09-29T02:48:58;91305.66;;;13.30;87.26
10958;BME280;5531;42.570;23.676;2022-09-29T02:51:36;91304.97;;;13.23;87.84
10958;BME280;5531;42.570;23.676;2022-09-29T02:54:18;91302.44;;;13.16;88.03
10958;BME280;5531;42.570;23.676;2022-09-29T02:56:59;91301.66;;;13.28;87.96
10958;BME280;5531;42.570;23.676;2022-09-29T02:59:36;91306.13;;;13.27;88.16
10958;BME280;5531;42.570;23.676;2022-09-29T03:02:08;91312.53;;;13.19;88.10
10958;BME280;5531;42.570;23.676;2022-09-29T03:04:40;91303.28;;;13.17;88.91
10958;BME280;5531;42.570;23.676;2022-09-29T03:07:09;91306.69;;;13.17;88.78
10958;BME280;5531;42.570;23.676;2022-09-29T03:09:38;91305.66;;;13.07;89.68
10958;BME280;5531;42.570;23.676;2022-09-29T03:12:07;91309.88;;;13.19;89.35
10958;BME280;5531;42.570;23.676;2022-09-29T03:14:37;91311.38;;;13.27;88.78
10958;BME280;5531;42.570;23.676;2022-09-29T03:17:06;91310.13;;;13.30;88.45
10958;BME280;5531;42.570;23.676;2022-09-29T03:19:35;91308.31;;;13.18;89.14
10958;BME280;5531;42.570;23.676;2022-09-29T03:22:07;91301.69;;;13.04;89.11
10958;BME280;5531;42.570;23.676;2022-09-29T03:24:36;91303.28;;;13.17;89.16
10958;BME280;5531;42.570;23.676;2022-09-29T03:27:05;91313.78;;;13.29;89.21
10958;BME280;5531;42.570;23.676;2022-09-29T03:29:34;91301.97;;;13.31;88.47
10958;BME280;5531;42.570;23.676;2022-09-29T03:32:04;91303.16;;;13.35;87.88
10958;BME280;5531;42.570;23.676;2022-09-29T03:34:34;91308.41;;;13.24;89.09
10958;BME280;5531;42.570;23.676;2022-09-29T03:37:06;91305.00;;;13.35;88.21
10958;BME280;5531;42.570;23.676;2022-09-29T03:39:35;91312.53;;;13.43;88.41
10958;BME280;5531;42.570;23.676;2022-09-29T03:42:04;91317.44;;;13.51;88.56
10958;BME280;5531;42.570;23.676;2022-09-29T03:44:34;91310.91;;;13.54;88.34
10958;BME280;5531;42.570;23.676;2022-09-29T03:47:03;91311.50;;;13.44;88.60
10958;BME280;5531;42.570;23.676;2022-09-29T03:49:32;91300.31;;;13.37;87.55
10958;BME280;5531;42.570;23.676;2022-09-29T03:52:01;91294.81;;;13.27;88.22
10958;BME280;5531;42.570;23.676;2022-09-29T03:54:33;91286.00;;;13.33;88.71
10958;BME280;5531;42.570;23.676;2022-09-29T03:57:02;91286.59;;;13.35;88.03
10958;BME280;5531;42.570;23.676;2022-09-29T03:59:31;91284.63;;;13.30;88.63
10958;BME280;5531;42.570;23.676;2022-09-29T04:02:00;91295.94;;;13.31;88.83
10958;BME280;5531;42.570;23.676;2022-09-29T04:04:29;91300.19;;;13.44;89.18
10958;BME280;5531;42.570;23.676;2022-09-29T04:06:58;91291.72;;;13.42;88.78
10958;BME280;5531;42.570;23.676;2022-09-29T04:09:27;91292.94;;;13.51;88.38
10958;BME280;5531;42.570;23.676;2022-09-29T04:11:59;91283.81;;;13.53;87.44
10958;BME280;5531;42.570;23.676;2022-09-29T04:14:29;91279.47;;;13.47;87.26
10958;BME280;5531;42.570;23.676;2022-09-29T04:16:58;91274.88;;;13.43;87.45
10958;BME280;5531;42.570;23.676;2022-09-29T04:19:27;91281.66;;;13.27;88.58
10958;BME280;5531;42.570;23.676;2022-09-29T04:21:56;91292.16;;;13.03;88.88
10958;BME280;5531;42.570;23.676;2022-09-29T04:24:25;91297.19;;;13.05;89.57
10958;BME280;5531;42.570;23.676;2022-09-29T04:26:54;91297.41;;;13.15;89.06
10958;BME280;5531;42.570;23.676;2022-09-29T04:29:26;91290.22;;;13.22;89.71
10958;BME280;5531;42.570;23.676;2022-09-29T04:31:55;91288.50;;;13.28;88.95
10958;BME280;5531;42.570;23.676;2022-09-29T04:34:24;91282.69;;;13.37;89.10
10958;BME280;5531;42.570;23.676;2022-09-29T04:36:53;91289.41;;;13.45;88.74
10958;BME280;5531;42.570;23.676;2022-09-29T04:39:23;91281.63;;;13.50;89.15
10958;BME280;5531;42.570;23.676;2022-09-29T04:41:52;91265.25;;;13.60;88.92
10958;BME280;5531;42.570;23.676;2022-09-29T04:44:21;91272.78;;;13.68;87.62
10958;BME280;5531;42.570;23.676;2022-09-29T04:46:53;91270.31;;;13.79;87.31
10958;BME280;5531;42.570;23.676;2022-09-29T04:49:22;91274.28;;;13.93;87.04
10958;BME280;5531;42.570;23.676;2022-09-29T04:51:51;91271.50;;;14.00;85.90
10958;BME280;5531;42.570;23.676;2022-09-29T04:54:20;91263.22;;;14.08;85.08
10958;BME280;5531;42.570;23.676;2022-09-29T04:56:50;91264.69;;;14.16;84.52
10958;BME280;5531;42.570;23.676;2022-09-29T04:59:19;91265.75;;;14.15;83.42
10958;BME280;5531;42.570;23.676;2022-09-29T05:01:48;91268.31;;;14.26;83.88
10958;BME280;5531;42.570;23.676;2022-09-29T05:04:20;91276.16;;;14.38;84.16
10958;BME280;5531;42.570;23.676;2022-09-29T05:06:49;91283.34;;;14.26;83.30
10958;BME280;5531;42.570;23.676;2022-09-29T05:09:19;91290.47;;;14.14;84.11
10958;BME280;5531;42.570;23.676;2022-09-29T05:11:48;91287.28;;;14.11;84.08
10958;BME280;5531;42.570;23.676;2022-09-29T05:14:17;91290.56;;;14.19;84.21
10958;BME280;5531;42.570;23.676;2022-09-29T05:16:46;91289.06;;;14.23;83.88
10958;BME280;5531;42.570;23.676;2022-09-29T05:19:15;91289.94;;;14.28;83.70
10958;BME280;5531;42.570;23.676;2022-09-29T05:21:47;91286.69;;;14.38;83.09
10958;BME280;5531;42.570;23.676;2022-09-29T05:24:16;91284.56;;;14.52;83.31
10958;BME280;5531;42.570;23.676;2022-09-29T05:26:45;91294.44;;;14.45;83.45
10958;BME280;5531;42.570;23.676;2022-09-29T05:29:14;91295.75;;;14.42;84.20
10958;BME280;5531;42.570;23.676;2022-09-29T05:31:43;91297.50;;;14.54;84.13
10958;BME280;5531;42.570;23.676;2022-09-29T05:34:12;91309.94;;;14.41;83.96
10958;BME280;5531;42.570;23.676;2022-09-29T05:36:41;91308.97;;;14.59;83.13
10958;BME280;5531;42.570;23.676;2022-09-29T05:39:14;91304.91;;;14.69;82.46
10958;BME280;5531;42.570;23.676;2022-09-29T05:41:45;91308.47;;;14.62;83.48
10958;BME280;5531;42.570;23.676;2022-09-29T05:44:15;91309.03;;;14.64;83.57
10958;BME280;5531;42.570;23.676;2022-09-29T05:46:44;91309.41;;;14.56;84.80
10958;BME280;5531;42.570;23.676;2022-09-29T05:49:14;91311.66;;;14.64;84.99
10958;BME280;5531;42.570;23.676;2022-09-29T05:51:44;91307.06;;;14.72;83.71
10958;BME280;5531;42.570;23.676;2022-09-29T05:54:16;91306.97;;;14.83;83.29
10958;BME280;5531;42.570;23.676;2022-09-29T05:56:45;91300.13;;;14.99;82.26
10958;BME280;5531;42.570;23.676;2022-09-29T05:59:14;91307.94;;;15.11;81.12
10958;BME280;5531;42.570;23.676;2022-09-29T06:01:43;91309.50;;;15.29;77.51
10958;BME280;5531;42.570;23.676;2022-09-29T06:04:12;91300.81;;;15.51;76.66
10958;BME280;5531;42.570;23.676;2022-09-29T06:06:42;91306.22;;;15.78;76.98
10958;BME280;5531;42.570;23.676;2022-09-29T06:09:15;91307.63;;;16.08;74.84
10958;BME280;5531;42.570;23.676;2022-09-29T06:11:44;91308.34;;;16.25;73.60
10958;BME280;5531;42.570;23.676;2022-09-29T06:14:14;91315.84;;;16.34;73.38
10958;BME280;5531;42.570;23.676;2022-09-29T06:16:43;91320.09;;;16.35;76.81
10958;BME280;5531;42.570;23.676;2022-09-29T06:19:12;91315.59;;;16.35;76.10
10958;BME280;5531;42.570;23.676;2022-09-29T06:21:41;91319.50;;;16.33;76.33
10958;BME280;5531;42.570;23.676;2022-09-29T06:24:10;91321.00;;;16.23;77.37
10958;BME280;5531;42.570;23.676;2022-09-29T06:26:42;91327.59;;;15.99;78.72
10958;BME280;5531;42.570;23.676;2022-09-29T06:29:12;91322.50;;;15.92;79.06
10958;BME280;5531;42.570;23.676;2022-09-29T06:31:41;91326.91;;;15.86;80.32
10958;BME280;5531;42.570;23.676;2022-09-29T06:34:11;91329.69;;;15.97;80.10
10958;BME280;5531;42.570;23.676;2022-09-29T06:36:41;91336.88;;;16.01;80.53
10958;BME280;5531;42.570;23.676;2022-09-29T06:39:23;91337.41;;;16.03;78.45
10958;BME280;5531;42.570;23.676;2022-09-29T06:41:55;91337.13;;;16.00;78.15
10958;BME280;5531;42.570;23.676;2022-09-29T06:44:26;91337.75;;;16.07;78.89
10958;BME280;5531;42.570;23.676;2022-09-29T06:46:56;91335.50;;;16.21;79.10
10958;BME280;5531;42.570;23.676;2022-09-29T06:49:25;91342.81;;;16.36;77.85
10958;BME280;5531;42.570;23.676;2022-09-29T06:51:54;91329.16;;;16.44;75.88
10958;BME280;5531;42.570;23.676;2022-09-29T06:54:23;91335.84;;;16.52;77.12
10958;BME280;5531;42.570;23.676;2022-09-29T06:56:55;91327.75;;;16.63;76.38
10958;BME280;5531;42.570;23.676;2022-09-29T06:59:25;91343.16;;;16.72;76.67
10958;BME280;5531;42.570;23.676;2022-09-29T07:01:54;91346.03;;;16.92;75.77
10958;BME280;5531;42.570;23.676;2022-09-29T07:04:24;91341.66;;;17.03;76.12
10958;BME280;5531;42.570;23.676;2022-09-29T07:06:54;91349.38;;;17.10;76.14
10958;BME280;5531;42.570;23.676;2022-09-29T07:09:22;91342.84;;;17.22;74.89
10958;BME280;5531;42.570;23.676;2022-09-29T07:11:52;91348.97;;;17.28;74.90
10958;BME280;5531;42.570;23.676;2022-09-29T07:14:23;91349.72;;;17.23;75.13
10958;BME280;5531;42.570;23.676;2022-09-29T07:16:53;91352.16;;;17.30;74.71
10958;BME280;5531;42.570;23.676;2022-09-29T07:19:23;91353.88;;;17.52;73.83
10958;BME280;5531;42.570;23.676;2022-09-29T07:21:53;91360.84;;;17.63;74.03
10958;BME280;5531;42.570;23.676;2022-09-29T07:24:22;91364.78;;;17.55;73.97
10958;BME280;5531;42.570;23.676;2022-09-29T07:26:52;91364.06;;;17.65;73.15
10958;BME280;5531;42.570;23.676;2022-09-29T07:29:23;91371.03;;;17.76;74.50
10958;BME280;5531;42.570;23.676;2022-09-29T07:31:55;91357.81;;;17.82;73.64
10958;BME280;5531;42.570;23.676;2022-09-29T07:34:24;91368.44;;;17.87;71.62
10958;BME280;5531;42.570;23.676;2022-09-29T07:36:53;91369.31;;;17.98;71.74
10958;BME280;5531;42.570;23.676;2022-09-29T07:39:22;91370.38;;;17.97;73.29
10958;BME280;5531;42.570;23.676;2022-09-29T07:41:51;91371.47;;;18.06;70.98
10958;BME280;5531;42.570;23.676;2022-09-29T07:44:24;91368.34;;;18.14;71.42
10958;BME280;5531;42.570;23.676;2022-09-29T07:46:54;91361.22;;;18.25;70.04
10958;BME280;5531;42.570;23.676;2022-09-29T07:49:23;91371.66;;;18.47;69.05
10958;BME280;5531;42.570;23.676;2022-09-29T07:51:52;91364.47;;;18.47;68.55
10958;BME280;5531;42.570;23.676;2022-09-29T07:54:22;91363.19;;;18.55;68.85
10958;BME280;5531;42.570;23.676;2022-09-29T07:56:51;91376.19;;;18.62;68.78
10958;BME280;5531;42.570;23.676;2022-09-29T07:59:19;91374.38;;;18.78;67.78
10958;BME280;5531;42.570;23.676;2022-09-29T08:01:51;91376.31;;;18.98;67.99
10958;BME280;5531;42.570;23.676;2022-09-29T08:04:21;91385.34;;;19.12;67.18
10958;BME280;5531;42.570;23.676;2022-09-29T08:06:51;91375.28;;;19.30;65.48
10958;BME280;5531;42.570;23.676;2022-09-29T08:09:20;91378.19;;;19.54;65.27
10958;BME280;5531;42.570;23.676;2022-09-29T08:11:49;91380.31;;;19.67;64.07
10958;BME280;5531;42.570;23.676;2022-09-29T08:14:18;91379.25;;;19.84;63.94
10958;BME280;5531;42.570;23.676;2022-09-29T08:16:47;91385.34;;;19.89;64.23
10958;BME280;5531;42.570;23.676;2022-09-29T08:19:19;91376.56;;;19.94;61.71
10958;BME280;5531;42.570;23.676;2022-09-29T08:21:48;91386.94;;;20.01;60.07
10958;BME280;5531;42.570;23.676;2022-09-29T08:24:17;91378.66;;;20.18;60.29
10958;BME280;5531;42.570;23.676;2022-09-29T08:26:46;91382.66;;;20.15;57.29
10958;BME280;5531;42.570;23.676;2022-09-29T08:29:15;91382.13;;;20.13;60.04
10958;BME280;5531;42.570;23.676;2022-09-29T08:31:44;91388.25;;;20.08;60.78
10958;BME280;5531;42.570;23.676;2022-09-29T08:34:14;91388.00;;;19.94;59.77
10958;BME280;5531;42.570;23.676;2022-09-29T08:36:46;91391.75;;;19.93;61.11
10958;BME280;5531;42.570;23.676;2022-09-29T08:39:15;91393.34;;;19.84;61.34
10958;BME280;5531;42.570;23.676;2022-09-29T08:41:57;91400.22;;;19.70;59.73
10958;BME280;5531;42.570;23.676;2022-09-29T08:44:34;91404.00;;;19.79;57.29
10958;BME280;5531;42.570;23.676;2022-09-29T08:47:13;91402.09;;;19.85;60.14
10958;BME280;5531;42.570;23.676;2022-09-29T08:49:46;91414.88;;;19.88;61.13
10958;BME280;5531;42.570;23.676;2022-09-29T08:52:21;91409.00;;;20.01;62.71
10958;BME280;5531;42.570;23.676;2022-09-29T08:54:55;91411.41;;;20.08;58.47
10958;BME280;5531;42.570;23.676;2022-09-29T08:57:27;91410.59;;;20.02;57.49
10958;BME280;5531;42.570;23.676;2022-09-29T08:59:59;91403.94;;;20.10;59.29
10958;BME280;5531;42.570;23.676;2022-09-29T09:02:48;91407.63;;;20.14;56.90
10958;BME280;5531;42.570;23.676;2022-09-29T09:05:40;91419.34;;;20.18;56.60
10958;BME280;5531;42.570;23.676;2022-09-29T09:08:24;91422.03;;;20.13;51.87
10958;BME280;5531;42.570;23.676;2022-09-29T09:11:08;91423.06;;;20.17;54.60
10958;BME280;5531;42.570;23.676;2022-09-29T09:13:57;91421.22;;;20.18;52.27
10958;BME280;5531;42.570;23.676;2022-09-29T09:16:39;91421.72;;;20.25;52.65
10958;BME280;5531;42.570;23.676;2022-09-29T09:19:45;91422.22;;;20.42;54.37
10958;BME280;5531;42.570;23.676;2022-09-29T09:22:21;91422.44;;;20.66;56.76
10958;BME280;5531;42.570;23.676;2022-09-29T09:24:59;91424.25;;;20.71;53.47
10958;BME280;5531;42.570;23.676;2022-09-29T09:27:32;91426.66;;;20.62;53.41
10958;BME280;5531;42.570;23.676;2022-09-29T09:30:05;91430.16;;;20.52;52.11
10958;BME280;5531;42.570;23.676;2022-09-29T09:32:43;91434.47;;;20.33;52.32
10958;BME280;5531;42.570;23.676;2022-09-29T09:35:23;91436.06;;;20.34;52.72
10958;BME280;5531;42.570;23.676;2022-09-29T09:37:59;91438.19;;;20.27;53.83
10958;BME280;5531;42.570;23.676;2022-09-29T09:40:38;91437.69;;;20.25;53.26
10958;BME280;5531;42.570;23.676;2022-09-29T09:43:13;91444.31;;;20.32;55.97
10958;BME280;5531;42.570;23.676;2022-09-29T09:45:50;91436.00;;;20.49;52.27
10958;BME280;5531;42.570;23.676;2022-09-29T09:48:26;91437.25;;;20.83;51.44
10958;BME280;5531;42.570;23.676;2022-09-29T09:51:00;91427.03;;;21.05;49.64
10958;BME280;5531;42.570;23.676;2022-09-29T09:53:33;91424.84;;;21.13;52.67
10958;BME280;5531;42.570;23.676;2022-09-29T09:56:14;91419.41;;;21.33;49.95
10958;BME280;5531;42.570;23.676;2022-09-29T09:59:04;91426.88;;;21.31;49.06
10958;BME280;5531;42.570;23.676;2022-09-29T10:01:39;91428.59;;;21.12;48.39
10958;BME280;5531;42.570;23.676;2022-09-29T10:04:11;91428.47;;;20.82;48.89
10958;BME280;5531;42.570;23.676;2022-09-29T10:06:40;91433.81;;;20.77;49.65
10958;BME280;5531;42.570;23.676;2022-09-29T10:09:13;91438.38;;;20.72;49.27
10958;BME280;5531;42.570;23.676;2022-09-29T10:11:45;91425.47;;;20.99;52.22
10958;BME280;5531;42.570;23.676;2022-09-29T10:14:20;91425.59;;;21.23;50.62
10958;BME280;5531;42.570;23.676;2022-09-29T10:16:54;91423.50;;;21.60;51.80
10958;BME280;5531;42.570;23.676;2022-09-29T10:19:51;91430.81;;;21.78;48.48
10958;BME280;5531;42.570;23.676;2022-09-29T10:22:21;91425.16;;;22.14;49.71
10958;BME280;5531;42.570;23.676;2022-09-29T10:24:51;91428.25;;;22.32;48.64
10958;BME280;5531;42.570;23.676;2022-09-29T10:27:25;91411.16;;;22.33;46.70
10958;BME280;5531;42.570;23.676;2022-09-29T10:29:55;91425.44;;;22.13;46.84
10958;BME280;5531;42.570;23.676;2022-09-29T10:32:30;91418.72;;;21.91;49.13
10958;BME280;5531;42.570;23.676;2022-09-29T10:35:07;91431.34;;;21.81;49.44
10958;BME280;5531;42.570;23.676;2022-09-29T10:37:47;91419.75;;;21.66;47.94
10958;BME280;5531;42.570;23.676;2022-09-29T10:40:21;91411.78;;;21.56;47.95
10958;BME280;5531;42.570;23.676;2022-09-29T10:42:56;91420.75;;;21.31;48.93
10958;BME280;5531;42.570;23.676;2022-09-29T10:45:27;91415.66;;;21.34;48.35
10958;BME280;5531;42.570;23.676;2022-09-29T10:48:10;91414.66;;;21.25;48.81
10958;BME280;5531;42.570;23.676;2022-09-29T10:50:49;91410.44;;;21.19;48.93
10958;BME280;5531;42.570;23.676;2022-09-29T10:53:31;91405.94;;;21.14;48.85
10958;BME280;5531;42.570;23.676;2022-09-29T10:56:14;91405.44;;;21.07;48.33
10958;BME280;5531;42.570;23.676;2022-09-29T10:58:53;91409.41;;;21.10;48.33
10958;BME280;5531;42.570;23.676;2022-09-29T11:01:24;91404.84;;;21.15;50.63
10958;BME280;5531;42.570;23.676;2022-09-29T11:03:56;91396.31;;;21.23;50.44
10958;BME280;5531;42.570;23.676;2022-09-29T11:06:29;91407.50;;;21.15;50.47
10958;BME280;5531;42.570;23.676;2022-09-29T11:09:01;91408.59;;;21.14;48.98
10958;BME280;5531;42.570;23.676;2022-09-29T11:11:33;91400.34;;;21.16;50.13
10958;BME280;5531;42.570;23.676;2022-09-29T11:14:05;91401.03;;;21.27;48.28
10958;BME280;5531;42.570;23.676;2022-09-29T11:16:55;91402.59;;;21.33;47.51
10958;BME280;5531;42.570;23.676;2022-09-29T11:19:25;91399.72;;;21.29;48.26
10958;BME280;5531;42.570;23.676;2022-09-29T11:25:21;91395.47;;;21.23;52.52
10958;BME280;5531;42.570;23.676;2022-09-29T11:28:04;91411.47;;;21.23;50.55
10958;BME280;5531;42.570;23.676;2022-09-29T11:30:51;91414.09;;;21.28;52.64
10958;BME280;5531;42.570;23.676;2022-09-29T11:36:12;91410.72;;;21.57;50.39
10958;BME280;5531;42.570;23.676;2022-09-29T11:39:02;91406.38;;;21.71;52.17
10958;BME280;5531;42.570;23.676;2022-09-29T11:41:46;91405.84;;;21.69;48.51
10958;BME280;5531;42.570;23.676;2022-09-29T11:44:40;91408.53;;;21.64;47.81
10958;BME280;5531;42.570;23.676;2022-09-29T11:47:24;91409.84;;;21.67;49.50
10958;BME280;5531;42.570;23.676;2022-09-29T11:50:08;91407.09;;;21.77;50.05
10958;BME280;5531;42.570;23.676;2022-09-29T11:53:02;91401.69;;;21.87;49.48
10958;BME280;5531;42.570;23.676;2022-09-29T11:55:46;91398.75;;;21.89;50.73
10958;BME280;5531;42.570;23.676;2022-09-29T11:58:27;91388.81;;;21.94;49.96
10958;BME280;5531;42.570;23.676;2022-09-29T12:01:12;91407.50;;;21.94;50.05
10958;BME280;5531;42.570;23.676;2022-09-29T12:04:02;91399.31;;;21.86;51.09
10958;BME280;5531;42.570;23.676;2022-09-29T12:09:43;91393.94;;;21.91;48.78
10958;BME280;5531;42.570;23.676;2022-09-29T12:12:24;91399.53;;;21.89;49.10
10958;BME280;5531;42.570;23.676;2022-09-29T12:15:14;91402.09;;;22.00;49.84
10958;BME280;5531;42.570;23.676;2022-09-29T12:17:49;91393.81;;;22.01;49.16
10958;BME280;5531;42.570;23.676;2022-09-29T12:20:27;91395.47;;;21.97;50.14
10958;BME280;5531;42.570;23.676;2022-09-29T12:23:01;91391.91;;;22.07;48.92
10958;BME280;5531;42.570;23.676;2022-09-29T12:25:33;91397.19;;;22.12;49.29
10958;BME280;5531;42.570;23.676;2022-09-29T12:28:10;91395.69;;;22.01;48.30
10958;BME280;5531;42.570;23.676;2022-09-29T12:30:44;91391.81;;;21.88;48.59
10958;BME280;5531;42.570;23.676;2022-09-29T12:33:20;91394.31;;;22.08;47.39
10958;BME280;5531;42.570;23.676;2022-09-29T12:36:07;91394.53;;;22.41;47.31
10958;BME280;5531;42.570;23.676;2022-09-29T12:39:00;91387.78;;;22.68;47.64
10958;BME280;5531;42.570;23.676;2022-09-29T12:41:34;91390.34;;;22.97;46.06
10958;BME280;5531;42.570;23.676;2022-09-29T12:44:12;91395.53;;;23.32;49.07
10958;BME280;5531;42.570;23.676;2022-09-29T12:46:45;91389.81;;;23.57;43.90
10958;BME280;5531;42.570;23.676;2022-09-29T12:49:21;91387.44;;;23.89;44.25
10958;BME280;5531;42.570;23.676;2022-09-29T12:51:55;91389.38;;;24.02;43.38
10958;BME280;5531;42.570;23.676;2022-09-29T12:54:29;91388.63;;;24.15;43.90
10958;BME280;5531;42.570;23.676;2022-09-29T12:57:03;91383.66;;;24.23;43.66
10958;BME280;5531;42.570;23.676;2022-09-29T12:59:36;91387.63;;;24.25;43.09
10958;BME280;5531;42.570;23.676;2022-09-29T13:02:26;91389.78;;;24.23;42.16
10958;BME280;5531;42.570;23.676;2022-09-29T13:05:16;91378.13;;;24.47;42.90
10958;BME280;5531;42.570;23.676;2022-09-29T13:08:32;91376.56;;;24.74;42.00
10958;BME280;5531;42.570;23.676;2022-09-29T13:11:38;91378.53;;;24.82;42.97
10958;BME280;5531;42.570;23.676;2022-09-29T13:14:24;91381.63;;;24.61;41.15
10958;BME280;5531;42.570;23.676;2022-09-29T13:17:10;91387.19;;;24.65;40.14
10958;BME280;5531;42.570;23.676;2022-09-29T13:23:08;91375.97;;;24.77;41.33
10958;BME280;5531;42.570;23.676;2022-09-29T13:25:53;91389.16;;;24.73;43.01
10958;BME280;5531;42.570;23.676;2022-09-29T13:28:30;91392.72;;;24.68;41.26
10958;BME280;5531;42.570;23.676;2022-09-29T13:31:02;91382.31;;;24.53;43.04
10958;BME280;5531;42.570;23.676;2022-09-29T13:33:33;91383.47;;;24.33;43.28
10958;BME280;5531;42.570;23.676;2022-09-29T13:36:03;91396.00;;;24.05;44.29
10958;BME280;5531;42.570;23.676;2022-09-29T13:38:37;91396.59;;;23.88;44.47
10958;BME280;5531;42.570;23.676;2022-09-29T13:41:13;91394.19;;;23.67;45.13
10958;BME280;5531;42.570;23.676;2022-09-29T13:44:02;91390.38;;;23.35;45.81
10958;BME280;5531;42.570;23.676;2022-09-29T13:46:38;91398.44;;;23.16;46.24
10958;BME280;5531;42.570;23.676;2022-09-29T13:49:13;91401.47;;;23.10;47.11